sensor_id;sensor_type;location;lat;lon;timestamp;temperature;humidity
31725;DHT22;18306;40.960;14.836;2022-07-09T00:00:05;20.60;99.90
31725;DHT22;18306;40.960;14.836;2022-07-09T00:02:36;20.70;99.90
31725;DHT22;18306;40.960;14.836;2022-07-09T00:05:04;20.70;99.90
31725;DHT22;18306;40.960;14.836;2022-07-09T00:07:34;20.80;99.90
31725;DHT22;18306;40.960;14.836;2022-07-09T00:10:05;20.80;99.90
31725;DHT22;18306;40.960;14.836;2022-07-09T00:12:35;20.70;99.90
31725;DHT22;18306;40.960;14.836;2022-07-09T00:15:03;20.70;99.90
31725;DHT22;18306;40.960;14.836;2022-07-09T00:17:31;20.70;99.90
31725;DHT22;18306;40.960;14.836;2022-07-09T00:19:58;20.80;99.90
31725;DHT22;18306;40.960;14.836;2022-07-09T00:22:25;21.00;99.90
31725;DHT22;18306;40.960;14.836;2022-07-09T00:24:56;21.00;99.90
31725;DHT22;18306;40.960;14.836;2022-07-09T00:27:23;20.90;99.90
31725;DHT22;18306;40.960;14.836;2022-07-09T00:29:51;20.90;99.90
31725;DHT22;18306;40.960;14.836;2022-07-09T00:32:21;20.90;99.90
31725;DHT22;18306;40.960;14.836;2022-07-09T00:34:48;20.90;99.90
31725;DHT22;18306;40.960;14.836;2022-07-09T00:37:15;20.90;99.90
31725;DHT22;18306;40.960;14.836;2022-07-09T00:39:54;20.90;99.90
31725;DHT22;18306;40.960;14.836;2022-07-09T00:42:24;20.90;99.90
31725;DHT22;18306;40.960;14.836;2022-07-09T00:44:51;20.70;99.90
31725;DHT22;18306;40.960;14.836;2022-07-09T00:47:19;20.70;99.90
31725;DHT22;18306;40.960;14.836;2022-07-09T00:49:49;20.80;99.90
31725;DHT22;18306;40.960;14.836;2022-07-09T00:52:19;20.90;99.90
31725;DHT22;18306;40.960;14.836;2022-07-09T00:54:46;20.90;99.90
31725;DHT22;18306;40.960;14.836;2022-07-09T00:57:15;21.00;99.90
31725;DHT22;18306;40.960;14.836;2022-07-09T00:59:43;21.00;99.90
31725;DHT22;18306;40.960;14.836;2022-07-09T01:02:10;20.90;99.90
31725;DHT22;18306;40.960;14.836;2022-07-09T01:04:37;20.80;99.90
31725;DHT22;18306;40.960;14.836;2022-07-09T01:07:09;20.90;99.90
31725;DHT22;18306;40.960;14.836;2022-07-09T01:09:40;20.80;99.90
31725;DHT22;18306;40.960;14.836;2022-07-09T01:12:10;20.70;99.90
31725;DHT22;18306;40.960;14.836;2022-07-09T01:14:38;20.70;99.90
31725;DHT22;18306;40.960;14.836;2022-07-09T01:17:05;20.80;99.90
31725;DHT22;18306;40.960;14.836;2022-07-09T01:19:34;20.80;99.90
31725;DHT22;18306;40.960;14.836;2022-07-09T01:22:01;20.80;99.90
31725;DHT22;18306;40.960;14.836;2022-07-09T01:24:29;20.70;99.90
31725;DHT22;18306;40.960;14.836;2022-07-09T01:26:56;20.70;99.90
31725;DHT22;18306;40.960;14.836;2022-07-09T01:29:23;20.70;99.90
31725;DHT22;18306;40.960;14.836;2022-07-09T01:31:51;20.70;99.90
31725;DHT22;18306;40.960;14.836;2022-07-09T01:34:18;20.60;99.90
31725;DHT22;18306;40.960;14.836;2022-07-09T01:36:45;20.60;99.90
31725;DHT22;18306;40.960;14.836;2022-07-09T01:39:13;20.60;99.90
31725;DHT22;18306;40.960;14.836;2022-07-09T01:41:40;20.50;99.90
31725;DHT22;18306;40.960;14.836;2022-07-09T01:44:14;20.60;99.90
31725;DHT22;18306;40.960;14.836;2022-07-09T01:46:48;20.60;99.90
31725;DHT22;18306;40.960;14.836;2022-07-09T01:49:16;20.60;99.90
31725;DHT22;18306;40.960;14.836;2022-07-09T01:51:43;20.70;99.90
31725;DHT22;18306;40.960;14.836;2022-07-09T01:54:10;20.70;99.90
31725;DHT22;18306;40.960;14.836;2022-07-09T01:56:38;20.70;99.90
31725;DHT22;18306;40.960;14.836;2022-07-09T01:59:08;20.60;99.90
31725;DHT22;18306;40.960;14.836;2022-07-09T02:01:35;20.60;99.90
31725;DHT22;18306;40.960;14.836;2022-07-09T02:04:02;20.80;99.90
31725;DHT22;18306;40.960;14.836;2022-07-09T02:06:30;20.80;99.90
31725;DHT22;18306;40.960;14.836;2022-07-09T02:08:57;20.80;99.90
31725;DHT22;18306;40.960;14.836;2022-07-09T02:11:24;20.80;99.90
31725;DHT22;18306;40.960;14.836;2022-07-09T02:13:51;20.80;99.90
31725;DHT22;18306;40.960;14.836;2022-07-09T02:16:19;20.70;99.90
31725;DHT22;18306;40.960;14.836;2022-07-09T02:18:46;20.70;99.90
31725;DHT22;18306;40.960;14.836;2022-07-09T02:21:17;20.70;99.90
31725;DHT22;18306;40.960;14.836;2022-07-09T02:23:46;20.70;99.90
31725;DHT22;18306;40.960;14.836;2022-07-09T02:26:15;20.70;99.90
31725;DHT22;18306;40.960;14.836;2022-07-09T02:28:43;20.70;99.90
31725;DHT22;18306;40.960;14.836;2022-07-09T02:31:10;20.60;99.90
31725;DHT22;18306;40.960;14.836;2022-07-09T02:33:39;20.70;99.90
31725;DHT22;18306;40.960;14.836;2022-07-09T02:36:06;20.60;99.90
31725;DHT22;18306;40.960;14.836;2022-07-09T02:38:33;20.70;99.90
31725;DHT22;18306;40.960;14.836;2022-07-09T02:41:01;20.70;99.90
31725;DHT22;18306;40.960;14.836;2022-07-09T02:43:28;20.60;99.90
31725;DHT22;18306;40.960;14.836;2022-07-09T02:45:56;20.60;99.90
31725;DHT22;18306;40.960;14.836;2022-07-09T02:48:23;20.50;99.90
31725;DHT22;18306;40.960;14.836;2022-07-09T02:50:52;20.60;99.90
31725;DHT22;18306;40.960;14.836;2022-07-09T02:53:20;20.50;99.90
31725;DHT22;18306;40.960;14.836;2022-07-09T02:55:47;20.60;99.90
31725;DHT22;18306;40.960;14.836;2022-07-09T02:58:14;20.50;99.90
31725;DHT22;18306;40.960;14.836;2022-07-09T03:00:47;20.50;99.90
31725;DHT22;18306;40.960;14.836;2022-07-09T03:03:15;20.40;99.90
31725;DHT22;18306;40.960;14.836;2022-07-09T03:05:43;20.40;99.90
31725;DHT22;18306;40.960;14.836;2022-07-09T03:08:13;20.30;99.90
31725;DHT22;18306;40.960;14.836;2022-07-09T03:10:40;20.40;99.90
31725;DHT22;18306;40.960;14.836;2022-07-09T03:13:07;20.40;99.90
31725;DHT22;18306;40.960;14.836;2022-07-09T03:15:37;20.40;99.90
31725;DHT22;18306;40.960;14.836;2022-07-09T03:18:07;20.30;99.90
31725;DHT22;18306;40.960;14.836;2022-07-09T03:20:38;20.30;99.90
31725;DHT22;18306;40.960;14.836;2022-07-09T03:23:06;20.30;99.90
31725;DHT22;18306;40.960;14.836;2022-07-09T03:25:33;20.30;99.90
31725;DHT22;18306;40.960;14.836;2022-07-09T03:28:00;20.30;99.90
31725;DHT22;18306;40.960;14.836;2022-07-09T03:30:27;20.40;99.90
31725;DHT22;18306;40.960;14.836;2022-07-09T03:32:54;20.40;99.90
31725;DHT22;18306;40.960;14.836;2022-07-09T03:35:21;20.30;99.90
31725;DHT22;18306;40.960;14.836;2022-07-09T03:37:48;20.30;99.90
31725;DHT22;18306;40.960;14.836;2022-07-09T03:40:16;20.30;99.90
31725;DHT22;18306;40.960;14.836;2022-07-09T03:42:43;20.40;99.90
31725;DHT22;18306;40.960;14.836;2022-07-09T03:45:10;20.40;99.90
31725;DHT22;18306;40.960;14.836;2022-07-09T03:47:37;20.40;99.90
31725;DHT22;18306;40.960;14.836;2022-07-09T03:50:06;20.40;99.90
31725;DHT22;18306;40.960;14.836;2022-07-09T03:52:33;20.40;99.90
31725;DHT22;18306;40.960;14.836;2022-07-09T03:55:00;20.50;99.90
31725;DHT22;18306;40.960;14.836;2022-07-09T03:57:27;20.50;99.90
31725;DHT22;18306;40.960;14.836;2022-07-09T03:59:55;20.50;99.90
31725;DHT22;18306;40.960;14.836;2022-07-09T04:02:22;20.50;99.90
31725;DHT22;18306;40.960;14.836;2022-07-09T04:04:49;20.60;99.90
31725;DHT22;18306;40.960;14.836;2022-07-09T04:07:16;20.50;99.90
31725;DHT22;18306;40.960;14.836;2022-07-09T04:09:44;20.40;99.90
31725;DHT22;18306;40.960;14.836;2022-07-09T04:12:11;20.30;99.90
31725;DHT22;18306;40.960;14.836;2022-07-09T04:14:38;20.30;99.90
31725;DHT22;18306;40.960;14.836;2022-07-09T04:17:05;20.40;99.90
31725;DHT22;18306;40.960;14.836;2022-07-09T04:19:33;20.40;99.90
31725;DHT22;18306;40.960;14.836;2022-07-09T04:22:00;20.30;99.90
31725;DHT22;18306;40.960;14.836;2022-07-09T04:24:29;20.20;99.90
31725;DHT22;18306;40.960;14.836;2022-07-09T04:26:56;20.30;99.90
31725;DHT22;18306;40.960;14.836;2022-07-09T04:29:23;20.40;99.90
31725;DHT22;18306;40.960;14.836;2022-07-09T04:31:50;20.40;99.90
31725;DHT22;18306;40.960;14.836;2022-07-09T04:34:17;20.40;99.90
31725;DHT22;18306;40.960;14.836;2022-07-09T04:36:45;20.30;99.90
31725;DHT22;18306;40.960;14.836;2022-07-09T04:39:12;20.30;99.90
31725;DHT22;18306;40.960;14.836;2022-07-09T04:41:40;20.30;99.90
31725;DHT22;18306;40.960;14.836;2022-07-09T04:44:07;20.30;99.90
31725;DHT22;18306;40.960;14.836;2022-07-09T04:46:34;20.30;99.90
31725;DHT22;18306;40.960;14.836;2022-07-09T04:49:01;20.50;99.90
31725;DHT22;18306;40.960;14.836;2022-07-09T04:51:29;20.50;99.90
31725;DHT22;18306;40.960;14.836;2022-07-09T04:53:56;20.40;99.90
31725;DHT22;18306;40.960;14.836;2022-07-09T04:56:23;20.50;99.90
31725;DHT22;18306;40.960;14.836;2022-07-09T04:58:50;20.50;99.90
31725;DHT22;18306;40.960;14.836;2022-07-09T05:01:21;20.60;99.90
31725;DHT22;18306;40.960;14.836;2022-07-09T05:03:49;20.70;99.90
31725;DHT22;18306;40.960;14.836;2022-07-09T05:06:17;20.70;99.90
31725;DHT22;18306;40.960;14.836;2022-07-09T05:08:44;20.80;99.90
31725;DHT22;18306;40.960;14.836;2022-07-09T05:11:11;20.80;99.90
31725;DHT22;18306;40.960;14.836;2022-07-09T05:13:39;20.80;99.90
31725;DHT22;18306;40.960;14.836;2022-07-09T05:16:09;20.80;99.90
31725;DHT22;18306;40.960;14.836;2022-07-09T05:18:36;20.60;99.90
31725;DHT22;18306;40.960;14.836;2022-07-09T05:21:09;20.60;99.90
31725;DHT22;18306;40.960;14.836;2022-07-09T05:23:55;20.70;99.90
31725;DHT22;18306;40.960;14.836;2022-07-09T05:26:31;20.80;99.90
31725;DHT22;18306;40.960;14.836;2022-07-09T05:29:14;21.10;99.90
31725;DHT22;18306;40.960;14.836;2022-07-09T05:31:41;21.40;99.90
31725;DHT22;18306;40.960;14.836;2022-07-09T05:34:09;21.70;99.90
31725;DHT22;18306;40.960;14.836;2022-07-09T05:36:36;22.00;99.90
31725;DHT22;18306;40.960;14.836;2022-07-09T05:39:04;22.50;99.90
31725;DHT22;18306;40.960;14.836;2022-07-09T05:41:33;22.90;99.90
31725;DHT22;18306;40.960;14.836;2022-07-09T05:44:01;23.40;99.90
31725;DHT22;18306;40.960;14.836;2022-07-09T05:46:31;23.60;99.90
31725;DHT22;18306;40.960;14.836;2022-07-09T05:48:58;23.90;99.90
31725;DHT22;18306;40.960;14.836;2022-07-09T05:51:27;24.50;99.90
31725;DHT22;18306;40.960;14.836;2022-07-09T05:53:54;25.20;98.60
31725;DHT22;18306;40.960;14.836;2022-07-09T05:56:21;27.00;96.00
31725;DHT22;18306;40.960;14.836;2022-07-09T05:58:49;28.30;94.20
31725;DHT22;18306;40.960;14.836;2022-07-09T06:01:16;29.20;92.70
31725;DHT22;18306;40.960;14.836;2022-07-09T06:03:43;29.80;91.50
31725;DHT22;18306;40.960;14.836;2022-07-09T06:06:10;30.00;91.30
31725;DHT22;18306;40.960;14.836;2022-07-09T06:08:41;31.10;90.50
31725;DHT22;18306;40.960;14.836;2022-07-09T06:11:09;31.60;86.50
31725;DHT22;18306;40.960;14.836;2022-07-09T06:13:38;31.00;90.00
31725;DHT22;18306;40.960;14.836;2022-07-09T06:16:05;31.60;87.40
31725;DHT22;18306;40.960;14.836;2022-07-09T06:18:33;31.60;86.00
31725;DHT22;18306;40.960;14.836;2022-07-09T06:21:00;31.80;85.90
31725;DHT22;18306;40.960;14.836;2022-07-09T06:23:28;32.50;85.50
31725;DHT22;18306;40.960;14.836;2022-07-09T06:25:55;32.20;82.70
31725;DHT22;18306;40.960;14.836;2022-07-09T06:28:22;32.00;83.20
31725;DHT22;18306;40.960;14.836;2022-07-09T06:30:49;31.50;85.60
31725;DHT22;18306;40.960;14.836;2022-07-09T06:33:19;31.50;84.00
31725;DHT22;18306;40.960;14.836;2022-07-09T06:35:53;31.60;84.60
31725;DHT22;18306;40.960;14.836;2022-07-09T06:38:20;31.60;84.20
31725;DHT22;18306;40.960;14.836;2022-07-09T06:40:47;29.00;89.20
31725;DHT22;18306;40.960;14.836;2022-07-09T06:43:15;27.60;91.00
31725;DHT22;18306;40.960;14.836;2022-07-09T06:45:46;26.60;92.50
31725;DHT22;18306;40.960;14.836;2022-07-09T06:48:14;26.70;93.00
31725;DHT22;18306;40.960;14.836;2022-07-09T06:50:41;26.40;93.30
31725;DHT22;18306;40.960;14.836;2022-07-09T06:53:08;26.30;93.50
31725;DHT22;18306;40.960;14.836;2022-07-09T06:55:35;26.20;93.90
31725;DHT22;18306;40.960;14.836;2022-07-09T06:58:03;26.20;93.60
31725;DHT22;18306;40.960;14.836;2022-07-09T07:00:30;26.20;94.30
31725;DHT22;18306;40.960;14.836;2022-07-09T07:02:57;26.20;93.50
31725;DHT22;18306;40.960;14.836;2022-07-09T07:05:26;26.10;94.30
31725;DHT22;18306;40.960;14.836;2022-07-09T07:07:54;26.20;93.60
31725;DHT22;18306;40.960;14.836;2022-07-09T07:10:21;26.00;93.80
31725;DHT22;18306;40.960;14.836;2022-07-09T07:12:49;26.00;94.40
31725;DHT22;18306;40.960;14.836;2022-07-09T07:15:16;26.20;93.90
31725;DHT22;18306;40.960;14.836;2022-07-09T07:17:43;26.30;94.20
31725;DHT22;18306;40.960;14.836;2022-07-09T07:20:11;26.20;93.80
31725;DHT22;18306;40.960;14.836;2022-07-09T07:22:38;26.30;94.10
31725;DHT22;18306;40.960;14.836;2022-07-09T07:25:06;26.40;93.60
31725;DHT22;18306;40.960;14.836;2022-07-09T07:27:33;26.30;93.50
31725;DHT22;18306;40.960;14.836;2022-07-09T07:30:00;26.20;93.60
31725;DHT22;18306;40.960;14.836;2022-07-09T07:32:27;26.10;94.00
31725;DHT22;18306;40.960;14.836;2022-07-09T07:34:55;26.10;94.30
31725;DHT22;18306;40.960;14.836;2022-07-09T07:37:22;26.10;93.60
31725;DHT22;18306;40.960;14.836;2022-07-09T07:39:49;26.20;94.20
31725;DHT22;18306;40.960;14.836;2022-07-09T07:42:16;26.50;93.90
31725;DHT22;18306;40.960;14.836;2022-07-09T07:44:44;26.30;94.30
31725;DHT22;18306;40.960;14.836;2022-07-09T07:47:11;26.10;94.20
31725;DHT22;18306;40.960;14.836;2022-07-09T07:49:39;26.10;94.10
31725;DHT22;18306;40.960;14.836;2022-07-09T07:52:06;26.40;94.10
31725;DHT22;18306;40.960;14.836;2022-07-09T07:54:33;26.10;93.80
31725;DHT22;18306;40.960;14.836;2022-07-09T07:57:02;25.70;94.00
31725;DHT22;18306;40.960;14.836;2022-07-09T07:59:29;25.50;94.10
31725;DHT22;18306;40.960;14.836;2022-07-09T08:01:56;25.40;94.40
31725;DHT22;18306;40.960;14.836;2022-07-09T08:04:24;25.50;94.90
31725;DHT22;18306;40.960;14.836;2022-07-09T08:06:51;25.40;94.70
31725;DHT22;18306;40.960;14.836;2022-07-09T08:09:18;25.70;94.90
31725;DHT22;18306;40.960;14.836;2022-07-09T08:11:45;25.60;94.90
31725;DHT22;18306;40.960;14.836;2022-07-09T08:14:13;25.50;95.60
31725;DHT22;18306;40.960;14.836;2022-07-09T08:16:40;25.50;95.10
31725;DHT22;18306;40.960;14.836;2022-07-09T08:19:07;25.80;95.30
31725;DHT22;18306;40.960;14.836;2022-07-09T08:21:34;26.30;94.50
31725;DHT22;18306;40.960;14.836;2022-07-09T08:24:01;26.50;93.90
31725;DHT22;18306;40.960;14.836;2022-07-09T08:26:31;26.30;94.20
31725;DHT22;18306;40.960;14.836;2022-07-09T08:29:00;26.00;94.00
31725;DHT22;18306;40.960;14.836;2022-07-09T08:31:27;25.50;94.60
31725;DHT22;18306;40.960;14.836;2022-07-09T08:34:01;25.70;94.30
31725;DHT22;18306;40.960;14.836;2022-07-09T08:36:29;25.80;94.20
31725;DHT22;18306;40.960;14.836;2022-07-09T08:38:58;25.90;94.40
31725;DHT22;18306;40.960;14.836;2022-07-09T08:41:26;25.80;93.20
31725;DHT22;18306;40.960;14.836;2022-07-09T08:43:55;25.50;92.90
31725;DHT22;18306;40.960;14.836;2022-07-09T08:46:22;25.60;93.90
31725;DHT22;18306;40.960;14.836;2022-07-09T08:48:50;25.70;93.40
31725;DHT22;18306;40.960;14.836;2022-07-09T08:51:19;25.40;94.00
31725;DHT22;18306;40.960;14.836;2022-07-09T08:53:47;25.10;93.40
31725;DHT22;18306;40.960;14.836;2022-07-09T08:56:14;25.40;94.70
31725;DHT22;18306;40.960;14.836;2022-07-09T08:58:42;25.60;93.90
31725;DHT22;18306;40.960;14.836;2022-07-09T09:01:21;25.80;93.30
31725;DHT22;18306;40.960;14.836;2022-07-09T09:03:56;25.80;93.40
31725;DHT22;18306;40.960;14.836;2022-07-09T09:06:23;25.90;92.90
31725;DHT22;18306;40.960;14.836;2022-07-09T09:08:54;25.90;93.20
31725;DHT22;18306;40.960;14.836;2022-07-09T09:11:25;26.20;93.40
31725;DHT22;18306;40.960;14.836;2022-07-09T09:13:56;26.30;93.30
31725;DHT22;18306;40.960;14.836;2022-07-09T09:17:07;25.90;92.70
31725;DHT22;18306;40.960;14.836;2022-07-09T09:19:36;25.90;93.20
31725;DHT22;18306;40.960;14.836;2022-07-09T09:22:04;25.80;93.30
31725;DHT22;18306;40.960;14.836;2022-07-09T09:24:31;26.00;93.60
31725;DHT22;18306;40.960;14.836;2022-07-09T09:30:08;26.00;92.40
31725;DHT22;18306;40.960;14.836;2022-07-09T09:32:36;25.80;92.90
31725;DHT22;18306;40.960;14.836;2022-07-09T09:35:03;26.00;93.30
31725;DHT22;18306;40.960;14.836;2022-07-09T09:37:30;26.20;93.40
31725;DHT22;18306;40.960;14.836;2022-07-09T09:40:07;26.20;92.70
31725;DHT22;18306;40.960;14.836;2022-07-09T09:42:41;25.90;93.20
31725;DHT22;18306;40.960;14.836;2022-07-09T09:45:15;26.00;91.70
31725;DHT22;18306;40.960;14.836;2022-07-09T09:47:48;26.10;92.30
31725;DHT22;18306;40.960;14.836;2022-07-09T09:50:18;26.10;91.50
31725;DHT22;18306;40.960;14.836;2022-07-09T09:52:50;26.20;91.20
31725;DHT22;18306;40.960;14.836;2022-07-09T09:55:18;26.30;91.50
31725;DHT22;18306;40.960;14.836;2022-07-09T09:57:46;26.20;91.40
31725;DHT22;18306;40.960;14.836;2022-07-09T10:00:14;26.30;90.70
31725;DHT22;18306;40.960;14.836;2022-07-09T10:02:46;26.20;90.00
31725;DHT22;18306;40.960;14.836;2022-07-09T10:05:14;26.10;90.10
31725;DHT22;18306;40.960;14.836;2022-07-09T10:07:42;26.10;89.00
31725;DHT22;18306;40.960;14.836;2022-07-09T10:10:19;26.20;89.80
31725;DHT22;18306;40.960;14.836;2022-07-09T10:12:47;26.30;88.40
31725;DHT22;18306;40.960;14.836;2022-07-09T10:15:21;26.30;88.20
31725;DHT22;18306;40.960;14.836;2022-07-09T10:17:53;26.10;88.60
31725;DHT22;18306;40.960;14.836;2022-07-09T10:20:31;26.20;87.40
31725;DHT22;18306;40.960;14.836;2022-07-09T10:23:00;26.20;88.50
31725;DHT22;18306;40.960;14.836;2022-07-09T10:25:29;26.10;88.10
31725;DHT22;18306;40.960;14.836;2022-07-09T10:27:57;26.30;87.40
31725;DHT22;18306;40.960;14.836;2022-07-09T10:30:32;26.30;87.00
31725;DHT22;18306;40.960;14.836;2022-07-09T10:33:08;26.30;87.60
31725;DHT22;18306;40.960;14.836;2022-07-09T10:35:44;26.40;87.60
31725;DHT22;18306;40.960;14.836;2022-07-09T10:38:17;26.30;86.40
31725;DHT22;18306;40.960;14.836;2022-07-09T10:40:46;26.30;87.30
31725;DHT22;18306;40.960;14.836;2022-07-09T10:43:17;26.40;88.30
31725;DHT22;18306;40.960;14.836;2022-07-09T10:46:10;26.40;85.60
31725;DHT22;18306;40.960;14.836;2022-07-09T10:48:59;26.40;86.10
31725;DHT22;18306;40.960;14.836;2022-07-09T10:51:29;26.60;87.00
31725;DHT22;18306;40.960;14.836;2022-07-09T10:53:57;26.50;87.60
31725;DHT22;18306;40.960;14.836;2022-07-09T10:56:24;26.60;84.40
31725;DHT22;18306;40.960;14.836;2022-07-09T10:58:51;26.60;85.80
31725;DHT22;18306;40.960;14.836;2022-07-09T11:01:20;26.60;84.00
31725;DHT22;18306;40.960;14.836;2022-07-09T11:03:51;26.50;84.00
31725;DHT22;18306;40.960;14.836;2022-07-09T11:06:18;26.60;87.10
31725;DHT22;18306;40.960;14.836;2022-07-09T11:08:45;26.60;83.20
31725;DHT22;18306;40.960;14.836;2022-07-09T11:11:19;26.60;84.80
31725;DHT22;18306;40.960;14.836;2022-07-09T11:13:52;26.60;85.80
31725;DHT22;18306;40.960;14.836;2022-07-09T11:16:22;26.30;86.50
31725;DHT22;18306;40.960;14.836;2022-07-09T11:18:50;26.10;87.70
31725;DHT22;18306;40.960;14.836;2022-07-09T11:21:26;26.10;87.30
31725;DHT22;18306;40.960;14.836;2022-07-09T11:23:54;26.50;87.20
31725;DHT22;18306;40.960;14.836;2022-07-09T11:26:21;26.70;86.10
31725;DHT22;18306;40.960;14.836;2022-07-09T11:28:48;26.60;83.90
31725;DHT22;18306;40.960;14.836;2022-07-09T11:31:17;26.30;84.20
31725;DHT22;18306;40.960;14.836;2022-07-09T11:33:47;26.60;86.30
31725;DHT22;18306;40.960;14.836;2022-07-09T11:36:44;26.80;84.60
31725;DHT22;18306;40.960;14.836;2022-07-09T11:39:27;26.80;86.00
31725;DHT22;18306;40.960;14.836;2022-07-09T11:41:56;26.70;84.50
31725;DHT22;18306;40.960;14.836;2022-07-09T11:44:25;26.60;84.90
31725;DHT22;18306;40.960;14.836;2022-07-09T11:47:11;26.50;84.90
31725;DHT22;18306;40.960;14.836;2022-07-09T11:49:43;26.40;85.20
31725;DHT22;18306;40.960;14.836;2022-07-09T11:52:24;26.50;84.60
31725;DHT22;18306;40.960;14.836;2022-07-09T11:55:04;26.70;87.00
31725;DHT22;18306;40.960;14.836;2022-07-09T11:57:35;26.90;86.00
31725;DHT22;18306;40.960;14.836;2022-07-09T12:00:21;26.80;86.20
31725;DHT22;18306;40.960;14.836;2022-07-09T12:02:49;26.80;85.90
31725;DHT22;18306;40.960;14.836;2022-07-09T12:05:28;26.60;84.50
31725;DHT22;18306;40.960;14.836;2022-07-09T12:08:00;26.40;86.60
31725;DHT22;18306;40.960;14.836;2022-07-09T12:10:33;26.60;84.20
31725;DHT22;18306;40.960;14.836;2022-07-09T12:13:02;26.60;84.20
31725;DHT22;18306;40.960;14.836;2022-07-09T12:15:30;26.50;84.60
31725;DHT22;18306;40.960;14.836;2022-07-09T12:17:59;26.60;86.40
31725;DHT22;18306;40.960;14.836;2022-07-09T12:20:28;26.70;84.20
31725;DHT22;18306;40.960;14.836;2022-07-09T12:22:55;26.70;85.60
31725;DHT22;18306;40.960;14.836;2022-07-09T12:25:22;26.60;85.60
31725;DHT22;18306;40.960;14.836;2022-07-09T12:27:49;26.20;86.30
31725;DHT22;18306;40.960;14.836;2022-07-09T12:30:20;25.90;87.90
31725;DHT22;18306;40.960;14.836;2022-07-09T12:32:47;26.10;89.80
31725;DHT22;18306;40.960;14.836;2022-07-09T12:35:14;26.30;89.70
31725;DHT22;18306;40.960;14.836;2022-07-09T12:37:42;26.50;87.00
31725;DHT22;18306;40.960;14.836;2022-07-09T12:40:10;26.30;88.00
31725;DHT22;18306;40.960;14.836;2022-07-09T12:42:38;26.20;88.80
31725;DHT22;18306;40.960;14.836;2022-07-09T12:45:06;26.10;88.50
31725;DHT22;18306;40.960;14.836;2022-07-09T12:47:34;26.00;88.80
31725;DHT22;18306;40.960;14.836;2022-07-09T12:50:01;26.20;90.00
31725;DHT22;18306;40.960;14.836;2022-07-09T12:52:33;26.60;90.30
31725;DHT22;18306;40.960;14.836;2022-07-09T12:55:01;26.60;85.20
31725;DHT22;18306;40.960;14.836;2022-07-09T12:57:28;26.40;86.80
31725;DHT22;18306;40.960;14.836;2022-07-09T12:59:55;26.30;87.80
31725;DHT22;18306;40.960;14.836;2022-07-09T13:02:23;26.60;87.70
31725;DHT22;18306;40.960;14.836;2022-07-09T13:04:50;26.60;85.80
31725;DHT22;18306;40.960;14.836;2022-07-09T13:07:17;26.60;87.60
31725;DHT22;18306;40.960;14.836;2022-07-09T13:09:44;26.60;87.40
31725;DHT22;18306;40.960;14.836;2022-07-09T13:12:11;26.30;87.60
31725;DHT22;18306;40.960;14.836;2022-07-09T13:14:38;26.30;86.30
31725;DHT22;18306;40.960;14.836;2022-07-09T13:17:05;26.50;87.30
31725;DHT22;18306;40.960;14.836;2022-07-09T13:19:32;26.50;86.40
31725;DHT22;18306;40.960;14.836;2022-07-09T13:21:59;26.50;86.00
31725;DHT22;18306;40.960;14.836;2022-07-09T13:24:26;26.60;85.90
31725;DHT22;18306;40.960;14.836;2022-07-09T13:26:53;26.20;85.80
31725;DHT22;18306;40.960;14.836;2022-07-09T13:29:20;25.90;86.80
31725;DHT22;18306;40.960;14.836;2022-07-09T13:31:47;26.00;86.60
31725;DHT22;18306;40.960;14.836;2022-07-09T13:34:14;26.10;87.80
31725;DHT22;18306;40.960;14.836;2022-07-09T13:36:41;26.40;86.00
31725;DHT22;18306;40.960;14.836;2022-07-09T13:39:08;26.40;86.20
31725;DHT22;18306;40.960;14.836;2022-07-09T13:41:35;26.40;87.10
31725;DHT22;18306;40.960;14.836;2022-07-09T13:44:03;26.30;86.00
31725;DHT22;18306;40.960;14.836;2022-07-09T13:46:30;26.30;86.60
31725;DHT22;18306;40.960;14.836;2022-07-09T13:48:57;26.30;86.70
31725;DHT22;18306;40.960;14.836;2022-07-09T13:51:24;26.10;85.70
31725;DHT22;18306;40.960;14.836;2022-07-09T13:53:51;26.30;86.80
31725;DHT22;18306;40.960;14.836;2022-07-09T13:56:18;26.20;86.10
31725;DHT22;18306;40.960;14.836;2022-07-09T13:58:45;26.00;86.20
31725;DHT22;18306;40.960;14.836;2022-07-09T14:01:12;26.00;85.90
31725;DHT22;18306;40.960;14.836;2022-07-09T14:03:41;26.20;84.70
31725;DHT22;18306;40.960;14.836;2022-07-09T14:06:08;26.10;84.00
31725;DHT22;18306;40.960;14.836;2022-07-09T14:08:35;26.00;84.00
31725;DHT22;18306;40.960;14.836;2022-07-09T14:11:02;26.10;83.80
31725;DHT22;18306;40.960;14.836;2022-07-09T14:13:29;26.00;85.80
31725;DHT22;18306;40.960;14.836;2022-07-09T14:15:58;26.00;86.60
31725;DHT22;18306;40.960;14.836;2022-07-09T14:18:41;25.90;86.20
31725;DHT22;18306;40.960;14.836;2022-07-09T14:21:09;25.90;86.40
31725;DHT22;18306;40.960;14.836;2022-07-09T14:23:38;26.00;87.30
31725;DHT22;18306;40.960;14.836;2022-07-09T14:26:05;26.10;86.70
31725;DHT22;18306;40.960;14.836;2022-07-09T14:28:32;26.00;85.80
31725;DHT22;18306;40.960;14.836;2022-07-09T14:30:59;26.20;86.40
31725;DHT22;18306;40.960;14.836;2022-07-09T14:33:26;26.20;86.00
31725;DHT22;18306;40.960;14.836;2022-07-09T14:35:53;25.90;85.70
31725;DHT22;18306;40.960;14.836;2022-07-09T14:38:21;26.10;86.50
31725;DHT22;18306;40.960;14.836;2022-07-09T14:40:48;26.30;85.30
31725;DHT22;18306;40.960;14.836;2022-07-09T14:43:16;26.30;84.50
31725;DHT22;18306;40.960;14.836;2022-07-09T14:45:43;26.30;84.50
31725;DHT22;18306;40.960;14.836;2022-07-09T14:48:10;26.10;84.40
31725;DHT22;18306;40.960;14.836;2022-07-09T14:50:38;26.10;85.30
31725;DHT22;18306;40.960;14.836;2022-07-09T14:53:05;26.10;83.90
31725;DHT22;18306;40.960;14.836;2022-07-09T14:55:33;26.20;84.10
31725;DHT22;18306;40.960;14.836;2022-07-09T14:58:02;26.00;81.60
31725;DHT22;18306;40.960;14.836;2022-07-09T15:00:32;26.10;83.50
31725;DHT22;18306;40.960;14.836;2022-07-09T15:03:00;26.10;82.60
31725;DHT22;18306;40.960;14.836;2022-07-09T15:05:27;26.20;82.90
31725;DHT22;18306;40.960;14.836;2022-07-09T15:07:54;25.90;83.40
31725;DHT22;18306;40.960;14.836;2022-07-09T15:10:21;26.10;85.50
31725;DHT22;18306;40.960;14.836;2022-07-09T15:12:48;26.20;83.60
31725;DHT22;18306;40.960;14.836;2022-07-09T15:15:15;26.00;82.80
31725;DHT22;18306;40.960;14.836;2022-07-09T15:17:42;26.10;84.20
31725;DHT22;18306;40.960;14.836;2022-07-09T15:20:11;26.10;82.70
31725;DHT22;18306;40.960;14.836;2022-07-09T15:22:38;26.10;83.80
31725;DHT22;18306;40.960;14.836;2022-07-09T15:25:08;26.20;82.80
31725;DHT22;18306;40.960;14.836;2022-07-09T15:27:37;26.30;83.00